sensor_id;sensor_type;location;lat;lon;timestamp;P1;durP1;ratioP1;P2;durP2;ratioP2
59681;SDS011;45548;39.530;-9.118;2022-07-18T07:12:03;11.90;;;7.68;;
59681;SDS011;45548;39.530;-9.118;2022-07-18T07:14:29;10.30;;;7.82;;
59681;SDS011;45548;39.530;-9.118;2022-07-18T07:16:55;12.45;;;9.73;;
59681;SDS011;45548;39.530;-9.118;2022-07-18T07:19:20;8.50;;;7.22;;
59681;SDS011;45548;39.530;-9.118;2022-07-18T07:21:45;9.75;;;7.00;;
59681;SDS011;45548;39.530;-9.118;2022-07-18T07:24:11;11.15;;;7.53;;
59681;SDS011;45548;39.530;-9.118;2022-07-18T07:26:36;11.68;;;6.95;;
59681;SDS011;45548;39.530;-9.118;2022-07-18T07:29:02;9.15;;;5.65;;
59681;SDS011;45548;39.530;-9.118;2022-07-18T07:31:27;10.40;;;6.00;;
59681;SDS011;45548;39.530;-9.118;2022-07-18T07:33:53;10.38;;;5.05;;
59681;SDS011;45548;39.530;-9.118;2022-07-18T07:36:19;8.68;;;4.93;;
59681;SDS011;45548;39.530;-9.118;2022-07-18T07:38:44;8.20;;;4.57;;
59681;SDS011;45548;39.530;-9.118;2022-07-18T07:41:09;7.80;;;4.05;;
59681;SDS011;45548;39.530;-9.118;2022-07-18T07:43:38;6.22;;;4.28;;
59681;SDS011;45548;39.530;-9.118;2022-07-18T07:46:03;8.05;;;4.40;;
59681;SDS011;45548;39.530;-9.118;2022-07-18T07:48:29;6.72;;;4.25;;
59681;SDS011;45548;39.530;-9.118;2022-07-18T07:50:55;8.27;;;5.43;;
59681;SDS011;45548;39.530;-9.118;2022-07-18T07:53:21;6.90;;;4.68;;
59681;SDS011;45548;39.530;-9.118;2022-07-18T07:55:46;7.57;;;4.13;;
59681;SDS011;45548;39.530;-9.118;2022-07-18T07:58:12;10.05;;;5.07;;
59681;SDS011;45548;39.530;-9.118;2022-07-18T08:00:37;8.93;;;4.97;;
59681;SDS011;45548;39.530;-9.118;2022-07-18T08:03:04;10.48;;;5.03;;
59681;SDS011;45548;39.530;-9.118;2022-07-18T08:05:32;11.55;;;5.03;;
59681;SDS011;45548;39.530;-9.118;2022-07-18T08:08:00;11.40;;;4.63;;
59681;SDS011;45548;39.530;-9.118;2022-07-18T08:10:26;9.27;;;3.92;;
59681;SDS011;45548;39.530;-9.118;2022-07-18T08:12:54;7.28;;;4.13;;
59681;SDS011;45548;39.530;-9.118;2022-07-18T08:15:20;11.38;;;4.93;;
59681;SDS011;45548;39.530;-9.118;2022-07-18T08:17:46;9.40;;;3.45;;
59681;SDS011;45548;39.530;-9.118;2022-07-18T08:20:11;8.50;;;3.42;;
59681;SDS011;45548;39.530;-9.118;2022-07-18T08:25:22;9.15;;;3.30;;
59681;SDS011;45548;39.530;-9.118;2022-07-18T08:27:48;10.32;;;3.42;;
59681;SDS011;45548;39.530;-9.118;2022-07-18T08:30:13;11.23;;;4.68;;
59681;SDS011;45548;39.530;-9.118;2022-07-18T08:32:39;7.95;;;3.28;;
59681;SDS011;45548;39.530;-9.118;2022-07-18T08:35:05;9.02;;;3.55;;
59681;SDS011;45548;39.530;-9.118;2022-07-18T08:37:31;10.60;;;3.40;;
59681;SDS011;45548;39.530;-9.118;2022-07-18T08:39:57;8.50;;;3.88;;
59681;SDS011;45548;39.530;-9.118;2022-07-18T08:42:23;9.95;;;3.55;;
59681;SDS011;45548;39.530;-9.118;2022-07-18T08:44:52;10.77;;;4.13;;
59681;SDS011;45548;39.530;-9.118;2022-07-18T08:47:20;11.60;;;4.60;;
59681;SDS011;45548;39.530;-9.118;2022-07-18T08:49:47;9.73;;;4.32;;
59681;SDS011;45548;39.530;-9.118;2022-07-18T08:52:13;11.65;;;4.28;;
59681;SDS011;45548;39.530;-9.118;2022-07-18T08:54:40;10.15;;;4.32;;
59681;SDS011;45548;39.530;-9.118;2022-07-18T08:57:06;13.38;;;4.65;;
59681;SDS011;45548;39.530;-9.118;2022-07-18T08:59:31;12.40;;;4.47;;
59681;SDS011;45548;39.530;-9.118;2022-07-18T09:01:57;15.70;;;5.05;;
59681;SDS011;45548;39.530;-9.118;2022-07-18T09:04:39;18.98;;;5.53;;
59681;SDS011;45548;39.530;-9.118;2022-07-18T09:07:09;10.77;;;4.88;;
59681;SDS011;45548;39.530;-9.118;2022-07-18T09:09:54;17.02;;;6.20;;
59681;SDS011;45548;39.530;-9.118;2022-07-18T09:12:23;14.23;;;6.25;;
59681;SDS011;45548;39.530;-9.118;2022-07-18T09:14:50;17.25;;;5.60;;
59681;SDS011;45548;39.530;-9.118;2022-07-18T09:22:37;16.08;;;5.80;;
59681;SDS011;45548;39.530;-9.118;2022-07-18T09:25:08;16.63;;;6.82;;
59681;SDS011;45548;39.530;-9.118;2022-07-18T09:35:29;18.33;;;7.22;;
59681;SDS011;45548;39.530;-9.118;2022-07-18T09:38:08;19.65;;;6.97;;
59681;SDS011;45548;39.530;-9.118;2022-07-18T09:43:03;20.27;;;7.03;;
59681;SDS011;45548;39.530;-9.118;2022-07-18T09:48:11;15.50;;;5.93;;
59681;SDS011;45548;39.530;-9.118;2022-07-18T09:53:19;17.73;;;8.20;;
59681;SDS011;45548;39.530;-9.118;2022-07-18T09:55:51;14.63;;;5.35;;
59681;SDS011;45548;39.530;-9.118;2022-07-18T09:58:25;15.65;;;6.03;;
59681;SDS011;45548;39.530;-9.118;2022-07-18T10:00:52;18.05;;;6.80;;
59681;SDS011;45548;39.530;-9.118;2022-07-18T10:03:19;17.38;;;7.00;;
59681;SDS011;45548;39.530;-9.118;2022-07-18T10:05:46;14.02;;;5.20;;
59681;SDS011;45548;39.530;-9.118;2022-07-18T10:08:15;17.15;;;5.80;;
59681;SDS011;45548;39.530;-9.118;2022-07-18T10:10:43;21.00;;;7.18;;
59681;SDS011;45548;39.530;-9.118;2022-07-18T10:13:10;23.25;;;8.32;;
59681;SDS011;45548;39.530;-9.118;2022-07-18T10:15:37;18.70;;;6.57;;
59681;SDS011;45548;39.530;-9.118;2022-07-18T10:18:06;19.23;;;10.23;;
59681;SDS011;45548;39.530;-9.118;2022-07-18T10:20:35;23.50;;;7.65;;
59681;SDS011;45548;39.530;-9.118;2022-07-18T10:23:10;20.38;;;8.23;;
59681;SDS011;45548;39.530;-9.118;2022-07-18T10:25:41;21.65;;;6.88;;
59681;SDS011;45548;39.530;-9.118;2022-07-18T10:28:08;20.50;;;9.38;;
59681;SDS011;45548;39.530;-9.118;2022-07-18T10:30:35;23.42;;;10.70;;
59681;SDS011;45548;39.530;-9.118;2022-07-18T10:33:03;20.38;;;10.88;;
59681;SDS011;45548;39.530;-9.118;2022-07-18T10:38:25;22.50;;;10.38;;
59681;SDS011;45548;39.530;-9.118;2022-07-18T10:41:07;24.30;;;11.65;;
59681;SDS011;45548;39.530;-9.118;2022-07-18T10:43:35;21.92;;;7.43;;
59681;SDS011;45548;39.530;-9.118;2022-07-18T10:46:03;21.02;;;10.23;;
59681;SDS011;45548;39.530;-9.118;2022-07-18T10:51:04;15.70;;;6.38;;
59681;SDS011;45548;39.530;-9.118;2022-07-18T10:56:19;18.23;;;8.82;;
59681;SDS011;45548;39.530;-9.118;2022-07-18T10:58:57;19.08;;;10.45;;
59681;SDS011;45548;39.530;-9.118;2022-07-18T11:01:24;21.35;;;8.32;;
59681;SDS011;45548;39.530;-9.118;2022-07-18T11:06:54;23.92;;;12.07;;
59681;SDS011;45548;39.530;-9.118;2022-07-18T11:09:31;23.02;;;11.18;;
59681;SDS011;45548;39.530;-9.118;2022-07-18T11:12:17;23.02;;;9.88;;
59681;SDS011;45548;39.530;-9.118;2022-07-18T11:15:00;21.88;;;11.75;;
59681;SDS011;45548;39.530;-9.118;2022-07-18T11:23:01;22.92;;;10.00;;
59681;SDS011;45548;39.530;-9.118;2022-07-18T11:25:28;23.33;;;10.18;;
59681;SDS011;45548;39.530;-9.118;2022-07-18T11:27:55;24.75;;;11.60;;
59681;SDS011;45548;39.530;-9.118;2022-07-18T11:30:22;21.70;;;9.25;;
59681;SDS011;45548;39.530;-9.118;2022-07-18T11:32:49;24.98;;;9.57;;
59681;SDS011;45548;39.530;-9.118;2022-07-18T11:35:20;23.02;;;10.32;;
59681;SDS011;45548;39.530;-9.118;2022-07-18T11:37:47;29.27;;;12.95;;
59681;SDS011;45548;39.530;-9.118;2022-07-18T11:40:15;24.23;;;9.25;;
59681;SDS011;45548;39.530;-9.118;2022-07-18T11:42:41;23.50;;;10.25;;
59681;SDS011;45548;39.530;-9.118;2022-07-18T11:45:08;21.80;;;11.25;;
59681;SDS011;45548;39.530;-9.118;2022-07-18T11:47:45;22.70;;;9.85;;
59681;SDS011;45548;39.530;-9.118;2022-07-18T11:50:15;37.05;;;14.77;;
59681;SDS011;45548;39.530;-9.118;2022-07-18T11:52:42;26.98;;;10.70;;
59681;SDS011;45548;39.530;-9.118;2022-07-18T11:55:08;27.98;;;12.95;;
59681;SDS011;45548;39.530;-9.118;2022-07-18T11:57:35;26.35;;;10.77;;
59681;SDS011;45548;39.530;-9.118;2022-07-18T12:00:13;27.65;;;14.63;;
59681;SDS011;45548;39.530;-9.118;2022-07-18T12:02:43;23.33;;;10.85;;
59681;SDS011;45548;39.530;-9.118;2022-07-18T12:05:08;24.30;;;11.48;;
59681;SDS011;45548;39.530;-9.118;2022-07-18T12:07:34;34.45;;;12.57;;
59681;SDS011;45548;39.530;-9.118;2022-07-18T12:10:13;30.00;;;12.45;;
59681;SDS011;45548;39.530;-9.118;2022-07-18T12:12:41;29.63;;;12.15;;
59681;SDS011;45548;39.530;-9.118;2022-07-18T12:15:06;25.15;;;9.85;;
59681;SDS011;45548;39.530;-9.118;2022-07-18T12:17:41;25.83;;;10.27;;
59681;SDS011;45548;39.530;-9.118;2022-07-18T12:20:13;23.27;;;11.27;;
59681;SDS011;45548;39.530;-9.118;2022-07-18T12:28:21;21.88;;;8.57;;
59681;SDS011;45548;39.530;-9.118;2022-07-18T12:30:47;22.27;;;9.45;;
59681;SDS011;45548;39.530;-9.118;2022-07-18T12:33:13;24.85;;;9.95;;
59681;SDS011;45548;39.530;-9.118;2022-07-18T12:35:39;26.23;;;10.73;;
59681;SDS011;45548;39.530;-9.118;2022-07-18T12:40:47;24.10;;;11.50;;
59681;SDS011;45548;39.530;-9.118;2022-07-18T12:43:32;25.20;;;11.52;;
59681;SDS011;45548;39.530;-9.118;2022-07-18T12:46:01;20.60;;;8.32;;
59681;SDS011;45548;39.530;-9.118;2022-07-18T12:48:31;21.95;;;9.75;;
59681;SDS011;45548;39.530;-9.118;2022-07-18T12:50:58;17.98;;;7.88;;
59681;SDS011;45548;39.530;-9.118;2022-07-18T12:53:33;20.83;;;8.00;;
59681;SDS011;45548;39.530;-9.118;2022-07-18T12:56:00;18.17;;;8.25;;
59681;SDS011;45548;39.530;-9.118;2022-07-18T12:58:25;20.25;;;8.85;;
59681;SDS011;45548;39.530;-9.118;2022-07-18T13:00:51;20.65;;;9.30;;
59681;SDS011;45548;39.530;-9.118;2022-07-18T13:03:17;23.85;;;10.63;;
59681;SDS011;45548;39.530;-9.118;2022-07-18T13:05:42;21.83;;;9.00;;
59681;SDS011;45548;39.530;-9.118;2022-07-18T13:08:08;19.45;;;10.25;;
59681;SDS011;45548;39.530;-9.118;2022-07-18T13:10:35;22.92;;;9.18;;
59681;SDS011;45548;39.530;-9.118;2022-07-18T13:13:03;21.23;;;9.68;;
59681;SDS011;45548;39.530;-9.118;2022-07-18T13:15:29;23.95;;;10.75;;
59681;SDS011;45548;39.530;-9.118;2022-07-18T13:17:55;21.63;;;9.15;;
59681;SDS011;45548;39.530;-9.118;2022-07-18T13:20:21;18.50;;;8.68;;
59681;SDS011;45548;39.530;-9.118;2022-07-18T13:22:46;20.25;;;6.57;;
59681;SDS011;45548;39.530;-9.118;2022-07-18T13:25:12;20.55;;;8.32;;
59681;SDS011;45548;39.530;-9.118;2022-07-18T13:27:38;17.95;;;8.38;;
59681;SDS011;45548;39.530;-9.118;2022-07-18T13:30:04;15.65;;;7.05;;
59681;SDS011;45548;39.530;-9.118;2022-07-18T13:32:33;15.55;;;5.90;;
59681;SDS011;45548;39.530;-9.118;2022-07-18T13:34:59;17.60;;;7.80;;
59681;SDS011;45548;39.530;-9.118;2022-07-18T13:37:24;18.20;;;7.13;;
59681;SDS011;45548;39.530;-9.118;2022-07-18T13:39:50;18.05;;;7.53;;
59681;SDS011;45548;39.530;-9.118;2022-07-18T13:42:16;22.30;;;8.65;;
59681;SDS011;45548;39.530;-9.118;2022-07-18T13:44:41;19.23;;;8.20;;
59681;SDS011;45548;39.530;-9.118;2022-07-18T13:47:10;25.02;;;7.88;;
59681;SDS011;45548;39.530;-9.118;2022-07-18T13:49:36;29.25;;;9.32;;
59681;SDS011;45548;39.530;-9.118;2022-07-18T13:52:02;25.85;;;8.43;;
59681;SDS011;45548;39.530;-9.118;2022-07-18T13:54:27;18.23;;;7.03;;
59681;SDS011;45548;39.530;-9.118;2022-07-18T13:56:53;14.75;;;6.72;;
59681;SDS011;45548;39.530;-9.118;2022-07-18T13:59:18;17.17;;;7.28;;
59681;SDS011;45548;39.530;-9.118;2022-07-18T14:01:44;19.38;;;7.57;;
59681;SDS011;45548;39.530;-9.118;2022-07-18T14:04:09;16.25;;;7.60;;
59681;SDS011;45548;39.530;-9.118;2022-07-18T14:06:35;17.13;;;7.43;;
59681;SDS011;45548;39.530;-9.118;2022-07-18T14:09:02;23.30;;;9.00;;
59681;SDS011;45548;39.530;-9.118;2022-07-18T14:11:28;24.75;;;8.68;;
59681;SDS011;45548;39.530;-9.118;2022-07-18T14:13:54;21.52;;;8.65;;
59681;SDS011;45548;39.530;-9.118;2022-07-18T14:16:19;32.33;;;9.85;;
59681;SDS011;45548;39.530;-9.118;2022-07-18T14:18:45;21.23;;;8.93;;
59681;SDS011;45548;39.530;-9.118;2022-07-18T14:21:10;21.13;;;8.27;;
59681;SDS011;45548;39.530;-9.118;2022-07-18T14:23:36;23.65;;;9.30;;
59681;SDS011;45548;39.530;-9.118;2022-07-18T14:26:02;23.10;;;8.18;;
59681;SDS011;45548;39.530;-9.118;2022-07-18T14:28:27;21.35;;;9.27;;
59681;SDS011;45548;39.530;-9.118;2022-07-18T14:30:53;18.42;;;7.95;;
59681;SDS011;45548;39.530;-9.118;2022-07-18T14:33:18;22.10;;;8.65;;
59681;SDS011;45548;39.530;-9.118;2022-07-18T14:35:44;18.83;;;7.28;;
59681;SDS011;45548;39.530;-9.118;2022-07-18T14:38:09;18.38;;;8.10;;
59681;SDS011;45548;39.530;-9.118;2022-07-18T14:40:35;18.88;;;8.32;;
59681;SDS011;45548;39.530;-9.118;2022-07-18T14:43:00;20.58;;;8.63;;
59681;SDS011;45548;39.530;-9.118;2022-07-18T14:45:26;20.73;;;8.80;;
59681;SDS011;45548;39.530;-9.118;2022-07-18T14:47:51;35.00;;;9.98;;
59681;SDS011;45548;39.530;-9.118;2022-07-18T14:50:17;16.65;;;9.05;;
59681;SDS011;45548;39.530;-9.118;2022-07-18T14:52:42;19.02;;;9.45;;
59681;SDS011;45548;39.530;-9.118;2022-07-18T14:55:08;15.95;;;4.97;;
59681;SDS011;45548;39.530;-9.118;2022-07-18T14:57:34;17.63;;;6.13;;
59681;SDS011;45548;39.530;-9.118;2022-07-18T15:00:00;17.33;;;7.68;;
59681;SDS011;45548;39.530;-9.118;2022-07-18T15:02:28;20.55;;;8.63;;
59681;SDS011;45548;39.530;-9.118;2022-07-18T15:04:53;18.08;;;8.13;;
59681;SDS011;45548;39.530;-9.118;2022-07-18T15:07:19;22.90;;;8.55;;
59681;SDS011;45548;39.530;-9.118;2022-07-18T15:09:44;17.27;;;7.32;;
59681;SDS011;45548;39.530;-9.118;2022-07-18T15:12:10;28.75;;;9.20;;
59681;SDS011;45548;39.530;-9.118;2022-07-18T15:14:35;24.65;;;8.77;;
59681;SDS011;45548;39.530;-9.118;2022-07-18T15:17:01;21.23;;;8.13;;
59681;SDS011;45548;39.530;-9.118;2022-07-18T15:19:26;16.90;;;7.30;;
59681;SDS011;45548;39.530;-9.118;2022-07-18T15:21:52;24.02;;;9.18;;
59681;SDS011;45548;39.530;-9.118;2022-07-18T15:24:18;23.35;;;8.90;;
59681;SDS011;45548;39.530;-9.118;2022-07-18T15:26:43;16.13;;;6.80;;
59681;SDS011;45548;39.530;-9.118;2022-07-18T15:29:09;15.85;;;6.20;;
59681;SDS011;45548;39.530;-9.118;2022-07-18T15:31:35;20.17;;;6.22;;
59681;SDS011;45548;39.530;-9.118;2022-07-18T15:34:00;19.05;;;8.18;;
59681;SDS011;45548;39.530;-9.118;2022-07-18T15:36:26;21.02;;;6.55;;
59681;SDS011;45548;39.530;-9.118;2022-07-18T15:38:52;14.48;;;6.55;;
59681;SDS011;45548;39.530;-9.118;2022-07-18T15:41:17;20.85;;;7.50;;
59681;SDS011;45548;39.530;-9.118;2022-07-18T15:43:45;16.42;;;7.90;;
59681;SDS011;45548;39.530;-9.118;2022-07-18T15:46:11;19.02;;;7.22;;
59681;SDS011;45548;39.530;-9.118;2022-07-18T15:48:41;17.33;;;6.28;;
59681;SDS011;45548;39.530;-9.118;2022-07-18T15:51:08;25.65;;;8.05;;
59681;SDS011;45548;39.530;-9.118;2022-07-18T15:53:33;20.70;;;7.85;;
59681;SDS011;45548;39.530;-9.118;2022-07-18T15:55:59;19.63;;;8.77;;
59681;SDS011;45548;39.530;-9.118;2022-07-18T15:58:24;19.00;;;7.40;;
59681;SDS011;45548;39.530;-9.118;2022-07-18T16:00:50;19.20;;;7.50;;
59681;SDS011;45548;39.530;-9.118;2022-07-18T16:03:16;16.75;;;6.82;;
59681;SDS011;45548;39.530;-9.118;2022-07-18T16:05:41;25.38;;;7.78;;
59681;SDS011;45548;39.530;-9.118;2022-07-18T16:08:07;22.80;;;7.68;;
59681;SDS011;45548;39.530;-9.118;2022-07-18T16:10:32;16.27;;;5.32;;
59681;SDS011;45548;39.530;-9.118;2022-07-18T16:12:58;23.13;;;7.45;;
59681;SDS011;45548;39.530;-9.118;2022-07-18T16:15:23;20.00;;;6.88;;
59681;SDS011;45548;39.530;-9.118;2022-07-18T16:17:49;23.55;;;7.47;;
59681;SDS011;45548;39.530;-9.118;2022-07-18T16:20:14;20.08;;;7.13;;
59681;SDS011;45548;39.530;-9.118;2022-07-18T16:22:43;16.25;;;6.13;;
59681;SDS011;45548;39.530;-9.118;2022-07-18T16:25:09;14.75;;;5.25;;
59681;SDS011;45548;39.530;-9.118;2022-07-18T16:27:35;17.27;;;6.38;;
59681;SDS011;45548;39.530;-9.118;2022-07-18T16:30:02;19.27;;;7.20;;
59681;SDS011;45548;39.530;-9.118;2022-07-18T16:32:28;17.65;;;6.47;;
59681;SDS011;45548;39.530;-9.118;2022-07-18T16:34:54;20.98;;;6.88;;
59681;SDS011;45548;39.530;-9.118;2022-07-18T16:37:19;17.98;;;7.22;;
59681;SDS011;45548;39.530;-9.118;2022-07-18T16:39:45;19.83;;;6.85;;
59681;SDS011;45548;39.530;-9.118;2022-07-18T16:42:11;21.02;;;6.28;;
59681;SDS011;45548;39.530;-9.118;2022-07-18T16:44:37;16.90;;;6.85;;
59681;SDS011;45548;39.530;-9.118;2022-07-18T16:47:03;18.92;;;6.60;;
59681;SDS011;45548;39.530;-9.118;2022-07-18T16:49:29;19.85;;;6.47;;
59681;SDS011;45548;39.530;-9.118;2022-07-18T16:51:55;19.30;;;6.53;;
59681;SDS011;45548;39.530;-9.118;2022-07-18T16:54:22;16.95;;;5.90;;
59681;SDS011;45548;39.530;-9.118;2022-07-18T16:56:47;16.75;;;5.95;;
59681;SDS011;45548;39.530;-9.118;2022-07-18T16:59:13;46.40;;;10.45;;
59681;SDS011;45548;39.530;-9.118;2022-07-18T17:01:39;15.75;;;6.63;;
59681;SDS011;45548;39.530;-9.118;2022-07-18T17:04:06;27.58;;;7.97;;
59681;SDS011;45548;39.530;-9.118;2022-07-18T17:06:32;18.30;;;5.65;;
59681;SDS011;45548;39.530;-9.118;2022-07-18T17:08:57;22.08;;;7.70;;
59681;SDS011;45548;39.530;-9.118;2022-07-18T17:11:23;14.13;;;5.63;;
59681;SDS011;45548;39.530;-9.118;2022-07-18T17:13:49;17.33;;;5.97;;
59681;SDS011;45548;39.530;-9.118;2022-07-18T17:16:15;19.48;;;6.40;;
59681;SDS011;45548;39.530;-9.118;2022-07-18T17:18:41;16.45;;;6.65;;
59681;SDS011;45548;39.530;-9.118;2022-07-18T17:21:06;15.20;;;5.05;;
59681;SDS011;45548;39.530;-9.118;2022-07-18T17:23:32;25.08;;;7.38;;
59681;SDS011;45548;39.530;-9.118;2022-07-18T17:25:58;20.65;;;6.43;;
59681;SDS011;45548;39.530;-9.118;2022-07-18T17:28:24;18.65;;;5.32;;
59681;SDS011;45548;39.530;-9.118;2022-07-18T17:30:50;27.85;;;7.32;;
59681;SDS011;45548;39.530;-9.118;2022-07-18T17:33:16;22.02;;;7.03;;
59681;SDS011;45548;39.530;-9.118;2022-07-18T17:35:42;24.45;;;7.28;;
59681;SDS011;45548;39.530;-9.118;2022-07-18T17:38:11;22.60;;;6.70;;
59681;SDS011;45548;39.530;-9.118;2022-07-18T17:40:38;24.10;;;8.00;;
59681;SDS011;45548;39.530;-9.118;2022-07-18T17:43:05;22.95;;;8.35;;
59681;SDS011;45548;39.530;-9.118;2022-07-18T17:45:32;25.95;;;8.32;;
59681;SDS011;45548;39.530;-9.118;2022-07-18T17:47:58;17.52;;;6.35;;
59681;SDS011;45548;39.530;-9.118;2022-07-18T17:50:24;18.77;;;6.18;;
59681;SDS011;45548;39.530;-9.118;2022-07-18T17:52:50;17.85;;;5.57;;
59681;SDS011;45548;39.530;-9.118;2022-07-18T17:55:18;19.35;;;6.38;;
59681;SDS011;45548;39.530;-9.118;2022-07-18T17:57:44;21.23;;;6.50;;
59681;SDS011;45548;39.530;-9.118;2022-07-18T18:00:11;16.67;;;5.65;;
59681;SDS011;45548;39.530;-9.118;2022-07-18T18:02:37;22.20;;;6.93;;
59681;SDS011;45548;39.530;-9.118;2022-07-18T18:05:03;21.42;;;6.85;;
59681;SDS011;45548;39.530;-9.118;2022-07-18T18:07:29;21.95;;;6.75;;
59681;SDS011;45548;39.530;-9.118;2022-07-18T18:09:55;18.73;;;5.95;;
59681;SDS011;45548;39.530;-9.118;2022-07-18T18:12:21;22.65;;;6.78;;
59681;SDS011;45548;39.530;-9.118;2022-07-18T18:14:47;22.48;;;6.20;;
59681;SDS011;45548;39.530;-9.118;2022-07-18T18:17:13;21.60;;;6.82;;
59681;SDS011;45548;39.530;-9.118;2022-07-18T18:19:38;20.40;;;6.55;;
59681;SDS011;45548;39.530;-9.118;2022-07-18T18:22:04;23.75;;;6.82;;
59681;SDS011;45548;39.530;-9.118;2022-07-18T18:24:31;21.50;;;6.28;;
59681;SDS011;45548;39.530;-9.118;2022-07-18T18:26:57;24.60;;;6.78;;
59681;SDS011;45548;39.530;-9.118;2022-07-18T18:29:23;19.02;;;6.80;;
59681;SDS011;45548;39.530;-9.118;2022-07-18T18:31:48;27.05;;;7.20;;
59681;SDS011;45548;39.530;-9.118;2022-07-18T18:34:14;21.70;;;6.47;;
59681;SDS011;45548;39.530;-9.118;2022-07-18T18:36:40;22.27;;;5.97;;
59681;SDS011;45548;39.530;-9.118;2022-07-18T18:39:32;18.77;;;6.82;;
59681;SDS011;45548;39.530;-9.118;2022-07-18T18:42:01;19.90;;;6.10;;
59681;SDS011;45548;39.530;-9.118;2022-07-18T18:44:28;23.35;;;7.25;;
59681;SDS011;45548;39.530;-9.118;2022-07-18T18:46:54;20.30;;;6.38;;
59681;SDS011;45548;39.530;-9.118;2022-07-18T18:49:21;20.63;;;7.18;;
59681;SDS011;45548;39.530;-9.118;2022-07-18T18:51:47;18.05;;;6.03;;
59681;SDS011;45548;39.530;-9.118;2022-07-18T18:54:14;19.45;;;6.65;;
59681;SDS011;45548;39.530;-9.118;2022-07-18T18:56:41;24.13;;;7.40;;
59681;SDS011;45548;39.530;-9.118;2022-07-18T18:59:07;21.98;;;6.20;;
59681;SDS011;45548;39.530;-9.118;2022-07-18T19:01:34;23.67;;;7.63;;
59681;SDS011;45548;39.530;-9.118;2022-07-18T19:04:00;23.77;;;6.82;;
59681;SDS011;45548;39.530;-9.118;2022-07-18T19:06:26;23.95;;;7.00;;
59681;SDS011;45548;39.530;-9.118;2022-07-18T19:08:55;18.02;;;6.22;;
59681;SDS011;45548;39.530;-9.118;2022-07-18T19:11:21;24.38;;;7.90;;
59681;SDS011;45548;39.530;-9.118;2022-07-18T19:13:48;22.13;;;6.70;;
59681;SDS011;45548;39.530;-9.118;2022-07-18T19:16:15;19.10;;;6.07;;
59681;SDS011;45548;39.530;-9.118;2022-07-18T19:18:43;22.85;;;7.30;;
59681;SDS011;45548;39.530;-9.118;2022-07-18T19:21:09;28.90;;;7.63;;
59681;SDS011;45548;39.530;-9.118;2022-07-18T19:23:34;26.02;;;7.60;;
59681;SDS011;45548;39.530;-9.118;2022-07-18T19:26:00;19.20;;;6.32;;
59681;SDS011;45548;39.530;-9.118;2022-07-18T19:28:26;18.00;;;6.65;;
59681;SDS011;45548;39.530;-9.118;2022-07-18T19:30:51;19.70;;;6.25;;
59681;SDS011;45548;39.530;-9.118;2022-07-18T19:33:17;19.88;;;6.78;;
59681;SDS011;45548;39.530;-9.118;2022-07-18T19:35:42;22.67;;;6.85;;
59681;SDS011;45548;39.530;-9.118;2022-07-18T19:38:08;26.40;;;7.38;;
59681;SDS011;45548;39.530;-9.118;2022-07-18T19:40:34;19.65;;;6.40;;
59681;SDS011;45548;39.530;-9.118;2022-07-18T19:43:00;18.50;;;5.50;;
59681;SDS011;45548;39.530;-9.118;2022-07-18T19:45:26;21.55;;;6.25;;
59681;SDS011;45548;39.530;-9.118;2022-07-18T19:47:51;21.88;;;6.97;;
59681;SDS011;45548;39.530;-9.118;2022-07-18T19:50:18;23.38;;;7.72;;
59681;SDS011;45548;39.530;-9.118;2022-07-18T19:52:44;17.17;;;6.18;;
59681;SDS011;45548;39.530;-9.118;2022-07-18T19:55:13;19.88;;;6.45;;
59681;SDS011;45548;39.530;-9.118;2022-07-18T19:57:38;21.67;;;6.07;;
59681;SDS011;45548;39.530;-9.118;2022-07-18T20:00:05;24.33;;;6.57;;
59681;SDS011;45548;39.530;-9.118;2022-07-18T20:02:33;22.20;;;6.68;;
59681;SDS011;45548;39.530;-9.118;2022-07-18T20:04:59;22.85;;;6.80;;
59681;SDS011;45548;39.530;-9.118;2022-07-18T20:07:26;28.88;;;7.00;;
59681;SDS011;45548;39.530;-9.118;2022-07-18T20:09:51;22.10;;;6.75;;
59681;SDS011;45548;39.530;-9.118;2022-07-18T20:12:17;19.90;;;7.03;;
59681;SDS011;45548;39.530;-9.118;2022-07-18T20:14:42;26.02;;;7.55;;
59681;SDS011;45548;39.530;-9.118;2022-07-18T20:17:08;21.63;;;6.63;;
59681;SDS011;45548;39.530;-9.118;2022-07-18T20:19:33;23.30;;;6.47;;
59681;SDS011;45548;39.530;-9.118;2022-07-18T20:21:59;24.88;;;7.40;;
59681;SDS011;45548;39.530;-9.118;2022-07-18T20:24:24;19.55;;;6.65;;
59681;SDS011;45548;39.530;-9.118;2022-07-18T20:26:50;27.08;;;6.53;;
59681;SDS011;45548;39.530;-9.118;2022-07-18T20:29:15;24.15;;;6.93;;
59681;SDS011;45548;39.530;-9.118;2022-07-18T20:31:41;32.13;;;7.80;;
59681;SDS011;45548;39.530;-9.118;2022-07-18T20:34:06;22.38;;;6.88;;
59681;SDS011;45548;39.530;-9.118;2022-07-18T20:36:32;17.60;;;5.57;;
59681;SDS011;45548;39.530;-9.118;2022-07-18T20:38:58;21.27;;;5.82;;
59681;SDS011;45548;39.530;-9.118;2022-07-18T20:41:24;26.25;;;8.13;;
59681;SDS011;45548;39.530;-9.118;2022-07-18T20:43:53;25.02;;;6.32;;
59681;SDS011;45548;39.530;-9.118;2022-07-18T20:46:20;21.65;;;6.18;;
59681;SDS011;45548;39.530;-9.118;2022-07-18T20:48:45;20.80;;;5.93;;
59681;SDS011;45548;39.530;-9.118;2022-07-18T20:51:11;21.48;;;5.72;;
59681;SDS011;45548;39.530;-9.118;2022-07-18T20:53:37;23.08;;;6.32;;
59681;SDS011;45548;39.530;-9.118;2022-07-18T20:56:02;19.60;;;6.07;;
59681;SDS011;45548;39.530;-9.118;2022-07-18T20:58:30;19.05;;;6.07;;
59681;SDS011;45548;39.530;-9.118;2022-07-18T21:00:56;31.02;;;7.18;;
59681;SDS011;45548;39.530;-9.118;2022-07-18T21:03:21;21.08;;;6.35;;
59681;SDS011;45548;39.530;-9.118;2022-07-18T21:05:47;23.40;;;5.90;;
59681;SDS011;45548;39.530;-9.118;2022-07-18T21:08:12;22.70;;;6.85;;
59681;SDS011;45548;39.530;-9.118;2022-07-18T21:10:39;20.45;;;5.55;;
59681;SDS011;45548;39.530;-9.118;2022-07-18T21:13:04;27.88;;;5.95;;
59681;SDS011;45548;39.530;-9.118;2022-07-18T21:15:30;19.40;;;5.35;;
59681;SDS011;45548;39.530;-9.118;2022-07-18T21:17:55;17.33;;;5.50;;
59681;SDS011;45548;39.530;-9.118;2022-07-18T21:20:22;19.00;;;5.25;;
59681;SDS011;45548;39.530;-9.118;2022-07-18T21:22:50;20.77;;;5.18;;
59681;SDS011;45548;39.530;-9.118;2022-07-18T21:25:16;17.25;;;5.88;;
59681;SDS011;45548;39.530;-9.118;2022-07-18T21:27:44;20.85;;;6.05;;
59681;SDS011;45548;39.530;-9.118;2022-07-18T21:30:10;23.77;;;6.57;;
59681;SDS011;45548;39.530;-9.118;2022-07-18T21:32:38;20.83;;;5.35;;
59681;SDS011;45548;39.530;-9.118;2022-07-18T21:35:04;19.27;;;5.25;;
59681;SDS011;45548;39.530;-9.118;2022-07-18T21:37:29;22.77;;;5.72;;
59681;SDS011;45548;39.530;-9.118;2022-07-18T21:39:55;17.65;;;5.50;;
59681;SDS011;45548;39.530;-9.118;2022-07-18T21:42:21;18.10;;;5.20;;
59681;SDS011;45548;39.530;-9.118;2022-07-18T21:44:46;23.25;;;5.75;;
59681;SDS011;45548;39.530;-9.118;2022-07-18T21:47:12;20.20;;;5.45;;
59681;SDS011;45548;39.530;-9.118;2022-07-18T21:49:39;19.83;;;5.88;;
59681;SDS011;45548;39.530;-9.118;2022-07-18T21:52:04;18.75;;;5.07;;
59681;SDS011;45548;39.530;-9.118;2022-07-18T21:54:30;17.92;;;5.70;;
59681;SDS011;45548;39.530;-9.118;2022-07-18T21:56:56;24.55;;;5.35;;
59681;SDS011;45548;39.530;-9.118;2022-07-18T21:59:22;16.60;;;4.97;;
